SOHO CELIAS Proton Monitor
Solar Wind Parameters for Carrington Rotation 2159 (hour averages)


Listed Parameters:

Measurement time (Year, Month, Day of Month, Day of Year, Hour, Minute, Second)
Proton speed [km/sec]
Proton density [protons per cubic centimeter]
Most probable proton thermal speed [km/sec]
Arrival direction [degrees from north-south, with + meaning FROM the south).
(SPEED=-1 means NOT AVAILABLE)

SOHO spacecraft coordinates: based on SOHO PRE orbit files
GSE X, Y, Z [Earth Radii] 1 RE == 6378 km
Heliocentric Range [106 km],
Heliographic Latitude and Longitude [deg].

FORMAT=(1X,I2,1X,I3,1X,I2,1X,I2,1X,I2,F7.1,3F7.2,3X,3F7.1,F7.1,F7.2,F8.2)



                              CELIAS/MTOF/PM DATA                      SOHO ORBIT DATA              
 InSitu_Start__Time       [km/s]  [cm-3] [km/s]  [deg]      [Re]   [Re]   [Re]  [Mkm]  [deg]  [deg]
 YY MON DY DOY:HH:MM:SS   SPEED     Np     Vth    N/S      GSE_X  GSE_Y  GSE_Z  RANGE  HGLAT  HGLONG
 15 JAN  4   4:23:00:00     402   15.6      34   -4.5      244.8  -69.6  -15.2  145.5   -3.5   359.9
 15 JAN  5   5:00:00:00     427   13.7      40   -3.6      244.8  -69.8  -15.2  145.5   -3.5   359.3
 15 JAN  5   5:01:00:00     431   11.1      47   -2.9      244.7  -69.9  -15.1  145.5   -3.5   358.8
 15 JAN  5   5:02:00:00     438    9.1      51   -0.8      244.7  -70.0  -15.1  145.5   -3.5   358.2
 15 JAN  5   5:03:00:00     440    7.5      43   -1.2      244.6  -70.1  -15.1  145.5   -3.5   357.7
 15 JAN  5   5:04:00:00     443    7.0      48   -0.7      244.6  -70.2  -15.1  145.5   -3.5   357.1
 15 JAN  5   5:05:00:00     465    7.6      51   -1.3      244.5  -70.3  -15.1  145.5   -3.5   356.6
 15 JAN  5   5:06:00:00     468    7.5      56   -1.8      244.5  -70.5  -15.1  145.5   -3.5   356.0
 15 JAN  5   5:07:00:00     466    6.8      54   -0.7      244.4  -70.6  -15.0  145.5   -3.6   355.5
 15 JAN  5   5:08:00:00     465    8.0      53    0.6      244.4  -70.7  -15.0  145.5   -3.6   354.9
 15 JAN  5   5:09:00:00     478    6.9      49    0.5      244.4  -70.8  -15.0  145.5   -3.6   354.4
 15 JAN  5   5:10:00:00     472    6.9      53    1.2      244.3  -70.9  -15.0  145.5   -3.6   353.9
 15 JAN  5   5:11:00:00     460    7.6      53    1.3      244.3  -71.0  -15.0  145.5   -3.6   353.3
 15 JAN  5   5:12:00:00     462    7.1      48   -0.6      244.2  -71.2  -15.0  145.5   -3.6   352.8
 15 JAN  5   5:13:00:00     496    5.3      45   -0.7      244.2  -71.3  -14.9  145.5   -3.6   352.2
 15 JAN  5   5:14:00:00     467    5.5      50    0.2      244.1  -71.4  -14.9  145.5   -3.6   351.6
 15 JAN  5   5:15:00:00     461    5.5      47    0.2      244.1  -71.5  -14.9  145.5   -3.6   351.1
 15 JAN  5   5:16:00:00     463    5.8      48   -2.3      244.0  -71.6  -14.9  145.5   -3.6   350.5
 15 JAN  5   5:17:00:00     461    5.2      42   -1.9      244.0  -71.7  -14.9  145.5   -3.6   350.0
 15 JAN  5   5:18:00:00     473    5.2      47   -3.2      244.0  -71.9  -14.9  145.5   -3.6   349.4
 15 JAN  5   5:19:00:00     488    5.3      43   -4.3      243.9  -72.0  -14.9  145.5   -3.6   348.9
 15 JAN  5   5:20:00:00     498    4.6      42   -4.0      243.9  -72.1  -14.8  145.5   -3.6   348.4
 15 JAN  5   5:21:00:00     473    5.2      39   -3.9      243.8  -72.2  -14.8  145.5   -3.6   347.8
 15 JAN  5   5:22:00:00     471    5.0      39   -3.7      243.8  -72.3  -14.8  145.5   -3.6   347.3
 15 JAN  5   5:23:00:00     448    4.5      43   -4.1      243.7  -72.4  -14.8  145.5   -3.6   346.7
 15 JAN  6   6:00:00:00     440    4.1      44   -0.4      243.7  -72.5  -14.8  145.5   -3.6   346.2
 15 JAN  6   6:01:00:00     429    4.2      41   -2.4      243.6  -72.7  -14.8  145.5   -3.6   345.6
 15 JAN  6   6:02:00:00     426    4.0      38   -1.3      243.6  -72.8  -14.7  145.5   -3.6   345.1
 15 JAN  6   6:03:00:00     442    6.8      41   -3.5      243.5  -72.9  -14.7  145.5   -3.6   344.5
 15 JAN  6   6:04:00:00     453    8.9      43   -4.5      243.5  -73.0  -14.7  145.5   -3.6   343.9
 15 JAN  6   6:05:00:00     467    8.9      47   -5.1      243.5  -73.1  -14.7  145.5   -3.6   343.4
 15 JAN  6   6:06:00:00     474    8.1      48   -5.3      243.4  -73.2  -14.7  145.5   -3.6   342.9
 15 JAN  6   6:07:00:00     468    8.6      47   -7.8      243.4  -73.3  -14.7  145.5   -3.7   342.3
 15 JAN  6   6:08:00:00     488    9.5      52   -6.2      243.3  -73.4  -14.6  145.5   -3.7   341.8
 15 JAN  6   6:09:00:00     495    7.6      42   -5.6      243.3  -73.6  -14.6  145.5   -3.7   341.3
 15 JAN  6   6:10:00:00     481    6.4      36   -3.5      243.2  -73.7  -14.6  145.5   -3.7   340.7
 15 JAN  6   6:11:00:00     457    5.4      32   -1.5      243.2  -73.8  -14.6  145.5   -3.7   340.1
 15 JAN  6   6:12:00:00     467    8.0      33   -1.7      243.1  -73.9  -14.6  145.5   -3.7   339.6
 15 JAN  6   6:13:00:00     462    8.8      33   -1.9      243.1  -74.0  -14.6  145.5   -3.7   339.0
 15 JAN  6   6:14:00:00     469    8.5      37   -2.4      243.1  -74.1  -14.5  145.5   -3.7   338.5
 15 JAN  6   6:15:00:00     456   11.3      29   -1.8      243.0  -74.2  -14.5  145.5   -3.7   337.9
 15 JAN  6   6:16:00:00     452    9.3      26   -0.2      243.0  -74.3  -14.5  145.6   -3.7   337.4
 15 JAN  6   6:17:00:00     443    3.8      34    1.0      242.9  -74.4  -14.5  145.6   -3.7   336.8
 15 JAN  6   6:18:00:00     457    6.7      29    0.0      242.9  -74.6  -14.5  145.6   -3.7   336.3
 15 JAN  6   6:19:00:00     453    8.9      33    1.5      242.8  -74.7  -14.5  145.6   -3.7   335.8
 15 JAN  6   6:20:00:00     450    5.6      28    0.2      242.8  -74.8  -14.4  145.6   -3.7   335.2
 15 JAN  6   6:21:00:00     435    2.8      35    1.2      242.7  -74.9  -14.4  145.6   -3.7   334.7
 15 JAN  6   6:22:00:00     434    3.1      35    1.4      242.7  -75.0  -14.4  145.6   -3.7   334.1
 15 JAN  6   6:23:00:00     438    3.9      34    0.1      242.6  -75.1  -14.4  145.6   -3.7   333.6
 15 JAN  7   7:00:00:00     443    5.6      35   -2.3      242.6  -75.2  -14.4  145.6   -3.7   333.0
 15 JAN  7   7:01:00:00     438    6.6      38   -0.2      242.6  -75.3  -14.4  145.6   -3.7   332.4
 15 JAN  7   7:02:00:00     439    5.4      37   -0.5      242.5  -75.4  -14.3  145.6   -3.7   331.9
 15 JAN  7   7:03:00:00     434    5.2      38   -0.8      242.5  -75.5  -14.3  145.6   -3.7   331.3
 15 JAN  7   7:04:00:00     433    4.9      39   -0.9      242.4  -75.7  -14.3  145.6   -3.7   330.8
 15 JAN  7   7:05:00:00     444    9.3      37   -0.6      242.4  -75.8  -14.3  145.6   -3.7   330.3
 15 JAN  7   7:06:00:00     463   21.3      31   -4.3      242.3  -75.9  -14.3  145.6   -3.7   329.7
 15 JAN  7   7:07:00:00     467   20.3      34   -5.6      242.3  -76.0  -14.3  145.6   -3.7   329.2
 15 JAN  7   7:08:00:00     456   14.6      33   -5.4      242.2  -76.1  -14.2  145.6   -3.8   328.6
 15 JAN  7   7:09:00:00     461   11.1      29   -3.7      242.2  -76.2  -14.2  145.6   -3.8   328.1
 15 JAN  7   7:10:00:00      -1   -1.0      -1   99.0      242.1  -76.3  -14.2  145.6   -3.8   327.5
 15 JAN  7   7:11:00:00      -1   -1.0      -1   99.0      242.1  -76.4  -14.2  145.6   -3.8   327.0
 15 JAN  7   7:12:00:00      -1   -1.0      -1   99.0      242.1  -76.5  -14.2  145.6   -3.8   326.4
 15 JAN  7   7:13:00:00      -1   -1.0      -1   99.0      242.0  -76.6  -14.2  145.6   -3.8   325.9
 15 JAN  7   7:14:00:00      -1   -1.0      -1   99.0      242.0  -76.7  -14.1  145.6   -3.8   325.3
 15 JAN  7   7:15:00:00     404    4.7      33    1.6      241.9  -76.8  -14.1  145.6   -3.8   324.8
 15 JAN  7   7:16:00:00     424    3.9      37    1.2      241.9  -77.0  -14.1  145.6   -3.8   324.2
 15 JAN  7   7:17:00:00     453    5.1      37    1.1      241.8  -77.1  -14.1  145.6   -3.8   323.7
 15 JAN  7   7:18:00:00     472    7.6      45    0.7      241.8  -77.2  -14.1  145.6   -3.8   323.1
 15 JAN  7   7:19:00:00     469    9.0      41    1.6      241.7  -77.3  -14.1  145.6   -3.8   322.6
 15 JAN  7   7:20:00:00     462   20.7      38    2.3      241.7  -77.4  -14.0  145.6   -3.8   322.1
 15 JAN  7   7:21:00:00     473   12.2      39    3.7      241.7  -77.5  -14.0  145.6   -3.8   321.5
 15 JAN  7   7:22:00:00     489    9.3      43    3.8      241.6  -77.6  -14.0  145.6   -3.8   320.9
 15 JAN  7   7:23:00:00     459    6.9      38    2.7      241.6  -77.7  -14.0  145.6   -3.8   320.4
 15 JAN  8   8:00:00:00     474    7.7      35    3.7      241.5  -77.8  -14.0  145.6   -3.8   319.8
 15 JAN  8   8:01:00:00     473   16.4      36    3.5      241.5  -77.9  -14.0  145.6   -3.8   319.3
 15 JAN  8   8:02:00:00     462   11.9      34    3.3      241.4  -78.0  -13.9  145.6   -3.8   318.7
 15 JAN  8   8:03:00:00     458   18.0      36    5.0      241.4  -78.1  -13.9  145.6   -3.8   318.2
 15 JAN  8   8:04:00:00     449   21.2      36    5.7      241.3  -78.2  -13.9  145.6   -3.8   317.6
 15 JAN  8   8:05:00:00     421   15.9      36    5.3      241.3  -78.3  -13.9  145.6   -3.8   317.1
 15 JAN  8   8:06:00:00     422    7.7      34    3.4      241.2  -78.4  -13.9  145.6   -3.8   316.6
 15 JAN  8   8:07:00:00     460    5.8      37    2.9      241.2  -78.5  -13.8  145.6   -3.8   316.0
 15 JAN  8   8:08:00:00     433    5.8      37    1.2      241.2  -78.6  -13.8  145.6   -3.8   315.5
 15 JAN  8   8:09:00:00     439    6.0      33    0.1      241.1  -78.7  -13.8  145.6   -3.9   314.9
 15 JAN  8   8:10:00:00     457    6.2      31   -3.0      241.1  -78.8  -13.8  145.6   -3.9   314.4
 15 JAN  8   8:11:00:00     451    4.8      32   -2.4      241.0  -78.9  -13.8  145.6   -3.9   313.8
 15 JAN  8   8:12:00:00     462    5.7      35   -5.2      241.0  -79.0  -13.8  145.6   -3.9   313.2
 15 JAN  8   8:13:00:00     460    4.8      39   -1.6      240.9  -79.2  -13.7  145.6   -3.9   312.7
 15 JAN  8   8:14:00:00     453    3.9      39   -2.0      240.9  -79.3  -13.7  145.6   -3.9   312.1
 15 JAN  8   8:15:00:00     473    5.1      43   -4.3      240.8  -79.4  -13.7  145.6   -3.9   311.6
 15 JAN  8   8:16:00:00     482    6.6      41   -6.2      240.8  -79.5  -13.7  145.6   -3.9   311.1
 15 JAN  8   8:17:00:00     462    5.0      44   -4.2      240.7  -79.6  -13.7  145.6   -3.9   310.5
 15 JAN  8   8:18:00:00     468    5.8      40   -4.8      240.7  -79.7  -13.7  145.6   -3.9   310.0
 15 JAN  8   8:19:00:00     467    4.3      38   -2.5      240.7  -79.8  -13.6  145.6   -3.9   309.4
 15 JAN  8   8:20:00:00     460    4.5      37   -1.8      240.6  -79.9  -13.6  145.6   -3.9   308.9
 15 JAN  8   8:21:00:00     464    5.0      40   -3.5      240.6  -80.0  -13.6  145.6   -3.9   308.3
 15 JAN  8   8:22:00:00     468    5.4      41   -4.5      240.5  -80.1  -13.6  145.6   -4.0   307.8
 15 JAN  8   8:23:00:00     462    5.4      40   -4.3      240.5  -80.2  -13.6  145.6   -4.0   307.2
 15 JAN  9   9:00:00:00     458    4.4      39   -0.8      240.4  -80.3  -13.5  145.6   -4.0   306.7
 15 JAN  9   9:01:00:00     458    4.4      35   -3.7      240.4  -80.4  -13.5  145.6   -4.0   306.1
 15 JAN  9   9:02:00:00     459    3.3      40   -3.3      240.3  -80.5  -13.5  145.6   -4.0   305.6
 15 JAN  9   9:03:00:00     486    5.8      43   -4.9      240.3  -80.6  -13.5  145.6   -4.0   305.0
 15 JAN  9   9:04:00:00     468    5.3      41   -4.6      240.2  -80.7  -13.5  145.6   -4.0   304.5
 15 JAN  9   9:05:00:00     455    4.7      37   -4.3      240.2  -80.8  -13.5  145.6   -4.0   304.0
 15 JAN  9   9:06:00:00     444    4.3      39   -5.5      240.2  -80.9  -13.4  145.6   -4.0   303.4
 15 JAN  9   9:07:00:00     438    3.9      40   -3.2      240.1  -81.0  -13.4  145.6   -4.0   302.9
 15 JAN  9   9:08:00:00     447    4.1      38   -4.6      240.1  -81.1  -13.4  145.6   -4.0   302.3
 15 JAN  9   9:09:00:00     447    4.0      41   -3.6      240.0  -81.2  -13.4  145.6   -4.0   301.7
 15 JAN  9   9:10:00:00     442    4.9      40   -5.1      240.0  -81.3  -13.4  145.6   -4.0   301.2
 15 JAN  9   9:11:00:00     434    3.5      38   -3.6      239.9  -81.4  -13.3  145.6   -4.0   300.6
 15 JAN  9   9:12:00:00     429    2.6      39   -2.3      239.9  -81.5  -13.3  145.6   -4.0   300.1
 15 JAN  9   9:13:00:00     437    3.0      37   -4.3      239.8  -81.6  -13.3  145.6   -4.0   299.5
 15 JAN  9   9:14:00:00     425    2.8      37   -4.1      239.8  -81.7  -13.3  145.6   -4.0   299.0
 15 JAN  9   9:15:00:00     416    2.1      36   -0.6      239.8  -81.8  -13.3  145.6   -4.0   298.5
 15 JAN  9   9:16:00:00     412    2.0      35   -1.1      239.7  -81.8  -13.2  145.6   -4.0   297.9
 15 JAN  9   9:17:00:00     410    2.3      33   -2.5      239.7  -81.9  -13.2  145.6   -4.0   297.4
 15 JAN  9   9:18:00:00     407    2.7      33   -1.7      239.6  -82.0  -13.2  145.6   -4.0   296.8
 15 JAN  9   9:19:00:00     399    2.4      31   -0.7      239.6  -82.1  -13.2  145.6   -4.0   296.3
 15 JAN  9   9:20:00:00     385    3.3      28   -0.8      239.5  -82.2  -13.2  145.6   -4.0   295.7
 15 JAN  9   9:21:00:00     403    2.3      32   -0.3      239.5  -82.3  -13.2  145.6   -4.0   295.2
 15 JAN  9   9:22:00:00     399    2.9      31    0.8      239.4  -82.4  -13.1  145.6   -4.0   294.6
 15 JAN  9   9:23:00:00     390    3.3      28    0.4      239.4  -82.5  -13.1  145.6   -4.0   294.0
 15 JAN 10  10:00:00:00     387    3.1      28    0.3      239.3  -82.6  -13.1  145.6   -4.1   293.5
 15 JAN 10  10:01:00:00     387    3.8      27    2.7      239.3  -82.7  -13.1  145.6   -4.1   293.0
 15 JAN 10  10:02:00:00     397    4.3      28    4.9      239.3  -82.8  -13.1  145.6   -4.1   292.4
 15 JAN 10  10:03:00:00     383    3.7      27    0.1      239.2  -82.9  -13.0  145.6   -4.1   291.9
 15 JAN 10  10:04:00:00     389    3.4      29    0.8      239.2  -83.0  -13.0  145.6   -4.1   291.3
 15 JAN 10  10:05:00:00     413    3.3      30    4.1      239.1  -83.1  -13.0  145.6   -4.1   290.8
 15 JAN 10  10:06:00:00     405    3.2      35    0.6      239.1  -83.2  -13.0  145.6   -4.1   290.2
 15 JAN 10  10:07:00:00     422    3.5      36    2.7      239.0  -83.3  -13.0  145.6   -4.1   289.7
 15 JAN 10  10:08:00:00     396    4.4      33    0.8      239.0  -83.4  -12.9  145.6   -4.1   289.1
 15 JAN 10  10:09:00:00     394    5.3      31    1.8      238.9  -83.5  -12.9  145.6   -4.1   288.6
 15 JAN 10  10:10:00:00     439    5.7      34    3.9      238.9  -83.6  -12.9  145.6   -4.1   288.0
 15 JAN 10  10:11:00:00     444    6.4      33    2.7      238.8  -83.7  -12.9  145.6   -4.1   287.5
 15 JAN 10  10:12:00:00     423    5.2      35   -0.2      238.8  -83.7  -12.9  145.6   -4.1   286.9
 15 JAN 10  10:13:00:00     434    5.5      35   -1.0      238.8  -83.8  -12.9  145.6   -4.1   286.4
 15 JAN 10  10:14:00:00     429    6.2      36    0.7      238.7  -83.9  -12.8  145.6   -4.1   285.8
 15 JAN 10  10:15:00:00     449    7.3      35    2.5      238.7  -84.0  -12.8  145.6   -4.1   285.3
 15 JAN 10  10:16:00:00     438    6.0      36   -0.9      238.6  -84.1  -12.8  145.6   -4.1   284.8
 15 JAN 10  10:17:00:00     435    6.0      36    2.2      238.6  -84.2  -12.8  145.6   -4.1   284.2
 15 JAN 10  10:18:00:00     430    4.7      38   -1.1      238.5  -84.3  -12.8  145.6   -4.1   283.7
 15 JAN 10  10:19:00:00     425    4.4      37   -1.5      238.5  -84.4  -12.7  145.6   -4.1   283.1
 15 JAN 10  10:20:00:00     422    4.0      37   -1.7      238.4  -84.5  -12.7  145.6   -4.1   282.5
 15 JAN 10  10:21:00:00     430    4.8      38   -3.3      238.4  -84.6  -12.7  145.6   -4.1   282.0
 15 JAN 10  10:22:00:00     440    3.9      41   -0.7      238.3  -84.7  -12.7  145.6   -4.1   281.4
 15 JAN 10  10:23:00:00     464    3.7      45    2.2      238.3  -84.8  -12.7  145.6   -4.1   280.9
 15 JAN 11  11:00:00:00     463    4.7      44   -0.4      238.3  -84.8  -12.6  145.6   -4.1   280.3
 15 JAN 11  11:01:00:00     445    3.7      38    0.4      238.2  -84.9  -12.6  145.6   -4.2   279.8
 15 JAN 11  11:02:00:00     460    3.5      41    0.0      238.2  -85.0  -12.6  145.6   -4.2   279.3
 15 JAN 11  11:03:00:00     438    3.4      39   -2.1      238.1  -85.1  -12.6  145.6   -4.2   278.7
 15 JAN 11  11:04:00:00     453    2.6      40   -0.2      238.1  -85.2  -12.6  145.6   -4.2   278.2
 15 JAN 11  11:05:00:00     487    2.6      56    0.0      238.0  -85.3  -12.5  145.6   -4.2   277.6
 15 JAN 11  11:06:00:00     473    2.7      56    0.6      238.0  -85.4  -12.5  145.6   -4.2   277.1
 15 JAN 11  11:07:00:00     516    2.8      61   -0.4      237.9  -85.5  -12.5  145.6   -4.2   276.5
 15 JAN 11  11:08:00:00     494    2.7      51   -1.8      237.9  -85.6  -12.5  145.6   -4.2   275.9
 15 JAN 11  11:09:00:00     488    2.8      57   -1.4      237.8  -85.6  -12.5  145.6   -4.2   275.4
 15 JAN 11  11:10:00:00     465    2.8      48   -0.8      237.8  -85.7  -12.4  145.6   -4.2   274.8
 15 JAN 11  11:11:00:00     432    2.6      44    2.1      237.8  -85.8  -12.4  145.6   -4.2   274.3
 15 JAN 11  11:12:00:00     446    2.2      37    0.0      237.7  -85.9  -12.4  145.6   -4.2   273.8
 15 JAN 11  11:13:00:00     464    1.9      38    0.2      237.7  -86.0  -12.4  145.6   -4.2   273.2
 15 JAN 11  11:14:00:00     464    2.0      36   -0.2      237.6  -86.1  -12.4  145.6   -4.2   272.7
 15 JAN 11  11:15:00:00     450    1.9      33    0.2      237.6  -86.2  -12.3  145.6   -4.2   272.1
 15 JAN 11  11:16:00:00     431    1.6      37    0.1      237.5  -86.3  -12.3  145.6   -4.2   271.6
 15 JAN 11  11:17:00:00     431    1.7      39    0.9      237.5  -86.3  -12.3  145.6   -4.2   271.0
 15 JAN 11  11:18:00:00     425    1.8      38    1.9      237.4  -86.4  -12.3  145.6   -4.2   270.5
 15 JAN 11  11:19:00:00     430    2.9      40    4.2      237.4  -86.5  -12.3  145.6   -4.2   269.9
 15 JAN 11  11:20:00:00     428    4.5      41    3.6      237.3  -86.6  -12.2  145.6   -4.2   269.4
 15 JAN 11  11:21:00:00     406    2.8      35    0.6      237.3  -86.7  -12.2  145.6   -4.2   268.8
 15 JAN 11  11:22:00:00     410    3.0      35    1.1      237.2  -86.8  -12.2  145.6   -4.2   268.3
 15 JAN 11  11:23:00:00     410    3.1      35    1.4      237.2  -86.9  -12.2  145.6   -4.2   267.7
 15 JAN 12  12:00:00:00     420    3.5      38    1.1      237.2  -86.9  -12.2  145.6   -4.2   267.2
 15 JAN 12  12:01:00:00     440    4.7      40    3.9      237.1  -87.0  -12.1  145.6   -4.2   266.7
 15 JAN 12  12:02:00:00     411    4.1      36    1.0      237.1  -87.1  -12.1  145.6   -4.2   266.1
 15 JAN 12  12:03:00:00     415    3.4      41    0.4      237.0  -87.2  -12.1  145.6   -4.2   265.6
 15 JAN 12  12:04:00:00     424    4.4      46    2.5      237.0  -87.3  -12.1  145.6   -4.3   265.0
 15 JAN 12  12:05:00:00     425    5.1      45    3.4      236.9  -87.4  -12.1  145.6   -4.3   264.4
 15 JAN 12  12:06:00:00     429    5.0      49    1.2      236.9  -87.4  -12.0  145.6   -4.3   263.9
 15 JAN 12  12:07:00:00     419    4.9      43    1.3      236.8  -87.5  -12.0  145.6   -4.3   263.3
 15 JAN 12  12:08:00:00     419    4.7      45    2.7      236.8  -87.6  -12.0  145.6   -4.3   262.8
 15 JAN 12  12:09:00:00     423    6.8      39    4.9      236.7  -87.7  -12.0  145.6   -4.3   262.2
 15 JAN 12  12:10:00:00     419    4.8      42    3.1      236.7  -87.8  -12.0  145.6   -4.3   261.7
 15 JAN 12  12:11:00:00     424    5.9      41    4.6      236.7  -87.8  -11.9  145.6   -4.3   261.2
 15 JAN 12  12:12:00:00     428    6.4      38    4.8      236.6  -87.9  -11.9  145.6   -4.3   260.6
 15 JAN 12  12:13:00:00     432    5.8      36    2.6      236.6  -88.0  -11.9  145.6   -4.3   260.1
 15 JAN 12  12:14:00:00     430    6.3      37    3.9      236.5  -88.1  -11.9  145.6   -4.3   259.5
 15 JAN 12  12:15:00:00     416    4.9      35    1.4      236.5  -88.2  -11.9  145.6   -4.3   259.0
 15 JAN 12  12:16:00:00     402    4.8      35    2.1      236.4  -88.3  -11.8  145.6   -4.3   258.4
 15 JAN 12  12:17:00:00     407    5.0      34    1.8      236.4  -88.3  -11.8  145.6   -4.4   257.9
 15 JAN 12  12:18:00:00     425    6.6      35    3.8      236.3  -88.4  -11.8  145.6   -4.4   257.3
 15 JAN 12  12:19:00:00     415    6.1      36    3.7      236.3  -88.5  -11.8  145.6   -4.4   256.7
 15 JAN 12  12:20:00:00     384    4.7      32    2.9      236.2  -88.6  -11.8  145.6   -4.4   256.2
 15 JAN 12  12:21:00:00     376    4.9      29    2.4      236.2  -88.7  -11.7  145.6   -4.4   255.7
 15 JAN 12  12:22:00:00     396    5.3      36    3.9      236.1  -88.7  -11.7  145.6   -4.4   255.1
 15 JAN 12  12:23:00:00     405    5.8      36    4.5      236.1  -88.8  -11.7  145.6   -4.4   254.6
 15 JAN 13  13:00:00:00     388    5.4      38    2.8      236.1  -88.9  -11.7  145.6   -4.4   254.0
 15 JAN 13  13:01:00:00     427    6.8      33    5.4      236.0  -89.0  -11.7  145.6   -4.4   253.5
 15 JAN 13  13:02:00:00     416    5.6      34    3.2      236.0  -89.0  -11.6  145.6   -4.4   252.9
 15 JAN 13  13:03:00:00     413    5.7      36    0.4      235.9  -89.1  -11.6  145.6   -4.4   252.4
 15 JAN 13  13:04:00:00     415    5.5      36   -2.2      235.9  -89.2  -11.6  145.6   -4.4   251.8
 15 JAN 13  13:05:00:00     420    5.2      36    1.1      235.8  -89.3  -11.6  145.6   -4.4   251.3
 15 JAN 13  13:06:00:00     408    5.0      33   -2.2      235.8  -89.4  -11.6  145.6   -4.4   250.7
 15 JAN 13  13:07:00:00     404    5.0      32   -0.6      235.7  -89.4  -11.5  145.6   -4.4   250.2
 15 JAN 13  13:08:00:00     413    5.7      35   -4.1      235.7  -89.5  -11.5  145.6   -4.4   249.6
 15 JAN 13  13:09:00:00     407    5.2      33   -0.1      235.6  -89.6  -11.5  145.6   -4.4   249.1
 15 JAN 13  13:10:00:00     420    5.4      36    1.7      235.6  -89.7  -11.5  145.6   -4.4   248.5
 15 JAN 13  13:11:00:00     424    5.0      39    2.5      235.5  -89.7  -11.5  145.6   -4.4   248.0
 15 JAN 13  13:12:00:00     426    6.0      37    0.7      235.5  -89.8  -11.4  145.6   -4.4   247.5
 15 JAN 13  13:13:00:00     430    5.8      37    1.2      235.4  -89.9  -11.4  145.6   -4.4   246.9
 15 JAN 13  13:14:00:00     427    5.6      37   -0.2      235.4  -90.0  -11.4  145.6   -4.4   246.4
 15 JAN 13  13:15:00:00     424    5.3      37    0.4      235.4  -90.0  -11.4  145.6   -4.4   245.8
 15 JAN 13  13:16:00:00     405    4.7      35   -1.7      235.3  -90.1  -11.3  145.6   -4.4   245.2
 15 JAN 13  13:17:00:00     404    4.8      33   -1.4      235.3  -90.2  -11.3  145.6   -4.4   244.7
 15 JAN 13  13:18:00:00     417    5.6      37    2.9      235.2  -90.3  -11.3  145.6   -4.4   244.1
 15 JAN 13  13:19:00:00     418    5.9      38    4.0      235.2  -90.3  -11.3  145.6   -4.4   243.6
 15 JAN 13  13:20:00:00     401    5.7      32    0.6      235.1  -90.4  -11.3  145.6   -4.5   243.0
 15 JAN 13  13:21:00:00     404    4.1      32    2.1      235.1  -90.5  -11.2  145.6   -4.5   242.5
 15 JAN 13  13:22:00:00     393    5.4      30    2.4      235.0  -90.6  -11.2  145.6   -4.5   242.0
 15 JAN 13  13:23:00:00     381    5.1      27    0.5      235.0  -90.6  -11.2  145.6   -4.5   241.4
 15 JAN 14  14:00:00:00     369    5.6      24   -1.0      234.9  -90.7  -11.2  145.6   -4.5   240.9
 15 JAN 14  14:01:00:00     370    5.1      25    0.8      234.9  -90.8  -11.2  145.6   -4.5   240.3
 15 JAN 14  14:02:00:00     386    5.6      27    1.4      234.8  -90.9  -11.1  145.6   -4.5   239.8
 15 JAN 14  14:03:00:00     390    3.2      29    0.2      234.8  -90.9  -11.1  145.6   -4.5   239.2
 15 JAN 14  14:04:00:00     371    4.6      24    0.3      234.7  -91.0  -11.1  145.6   -4.5   238.7
 15 JAN 14  14:05:00:00     374    4.7      26   -0.4      234.7  -91.1  -11.1  145.6   -4.5   238.1
 15 JAN 14  14:06:00:00     374    5.5      26    1.4      234.7  -91.1  -11.1  145.6   -4.5   237.5
 15 JAN 14  14:07:00:00     367    4.9      24    1.1      234.6  -91.2  -11.0  145.6   -4.5   237.0
 15 JAN 14  14:08:00:00     371    6.1      25    3.5      234.6  -91.3  -11.0  145.6   -4.5   236.5
 15 JAN 14  14:09:00:00     373    5.5      25    1.4      234.5  -91.4  -11.0  145.6   -4.5   235.9
 15 JAN 14  14:10:00:00     372    6.0      26    1.0      234.5  -91.4  -11.0  145.6   -4.5   235.4
 15 JAN 14  14:11:00:00     378    7.5      33    4.6      234.4  -91.5  -10.9  145.6   -4.5   234.9
 15 JAN 14  14:12:00:00     375    7.9      31    4.9      234.4  -91.6  -10.9  145.7   -4.5   234.3
 15 JAN 14  14:13:00:00     374    6.2      25    1.0      234.3  -91.6  -10.9  145.7   -4.5   233.7
 15 JAN 14  14:14:00:00     371    6.9      24    0.8      234.3  -91.7  -10.9  145.7   -4.5   233.2
 15 JAN 14  14:15:00:00     376    6.9      24    2.6      234.2  -91.8  -10.9  145.7   -4.5   232.6
 15 JAN 14  14:16:00:00     374    5.2      25    0.0      234.2  -91.8  -10.8  145.7   -4.5   232.1
 15 JAN 14  14:17:00:00     362    5.4      22    0.8      234.1  -91.9  -10.8  145.7   -4.5   231.5
 15 JAN 14  14:18:00:00     374    5.4      24    2.1      234.1  -92.0  -10.8  145.7   -4.5   231.0
 15 JAN 14  14:19:00:00     370    5.8      24    2.7      234.0  -92.0  -10.8  145.7   -4.5   230.4
 15 JAN 14  14:20:00:00     365    5.0      24    0.4      234.0  -92.1  -10.8  145.7   -4.5   229.9
 15 JAN 14  14:21:00:00     375    5.9      25    0.8      233.9  -92.2  -10.7  145.7   -4.5   229.4
 15 JAN 14  14:22:00:00     376    6.3      25   -1.6      233.9  -92.3  -10.7  145.7   -4.5   228.8
 15 JAN 14  14:23:00:00     375    6.6      24   -2.4      233.8  -92.3  -10.7  145.7   -4.6   228.3
 15 JAN 15  15:00:00:00     377    6.7      25   -2.0      233.8  -92.4  -10.7  145.7   -4.6   227.7
 15 JAN 15  15:01:00:00     379    6.5      26    2.3      233.8  -92.5  -10.6  145.7   -4.6   227.2
 15 JAN 15  15:02:00:00     374    6.1      25   -0.3      233.7  -92.5  -10.6  145.7   -4.6   226.6
 15 JAN 15  15:03:00:00     385    6.7      30   -2.1      233.7  -92.6  -10.6  145.7   -4.6   226.0
 15 JAN 15  15:04:00:00     399    6.5      34   -3.3      233.6  -92.7  -10.6  145.7   -4.6   225.5
 15 JAN 15  15:05:00:00     399    5.5      35    1.3      233.6  -92.7  -10.6  145.7   -4.6   224.9
 15 JAN 15  15:06:00:00     392    5.4      36    1.9      233.5  -92.8  -10.5  145.7   -4.6   224.4
 15 JAN 15  15:07:00:00     386    5.8      34   -3.3      233.5  -92.8  -10.5  145.7   -4.6   223.9
 15 JAN 15  15:08:00:00     394    6.1      31   -4.0      233.4  -92.9  -10.5  145.7   -4.6   223.3
 15 JAN 15  15:09:00:00     413    5.6      32   -1.0      233.4  -93.0  -10.5  145.7   -4.6   222.8
 15 JAN 15  15:10:00:00     389    5.2      30    0.1      233.3  -93.0  -10.5  145.7   -4.6   222.2
 15 JAN 15  15:11:00:00     379    5.4      30   -1.9      233.3  -93.1  -10.4  145.7   -4.6   221.7
 15 JAN 15  15:12:00:00     392    5.7      38    3.7      233.2  -93.2  -10.4  145.7   -4.6   221.1
 15 JAN 15  15:13:00:00     390    5.2      35    1.8      233.2  -93.2  -10.4  145.7   -4.6   220.6
 15 JAN 15  15:14:00:00     364    3.9      29   -2.0      233.1  -93.3  -10.4  145.7   -4.6   220.0
 15 JAN 15  15:15:00:00     362    3.8      29   -1.3      233.1  -93.4  -10.3  145.7   -4.6   219.5
 15 JAN 15  15:16:00:00     385    4.8      28   -2.9      233.0  -93.4  -10.3  145.7   -4.6   218.9
 15 JAN 15  15:17:00:00     363    5.2      23   -1.8      233.0  -93.5  -10.3  145.7   -4.6   218.4
 15 JAN 15  15:18:00:00     369    5.6      23   -0.4      232.9  -93.5  -10.3  145.7   -4.6   217.8
 15 JAN 15  15:19:00:00     370    4.7      24   -1.3      232.9  -93.6  -10.3  145.7   -4.6   217.3
 15 JAN 15  15:20:00:00     365    5.2      24   -0.6      232.8  -93.7  -10.2  145.7   -4.6   216.8
 15 JAN 15  15:21:00:00     364    5.7      23   -2.6      232.8  -93.7  -10.2  145.7   -4.6   216.2
 15 JAN 15  15:22:00:00     379    6.5      25   -3.7      232.7  -93.8  -10.2  145.7   -4.6   215.7
 15 JAN 15  15:23:00:00     390    6.7      30   -0.2      232.7  -93.9  -10.2  145.7   -4.6   215.1
 15 JAN 16  16:00:00:00     424    5.9      33    0.9      232.7  -93.9  -10.2  145.7   -4.6   214.5
 15 JAN 16  16:01:00:00     398    7.2      30   -2.1      232.6  -94.0  -10.1  145.7   -4.6   214.0
 15 JAN 16  16:02:00:00     405    9.1      39    4.3      232.6  -94.0  -10.1  145.7   -4.6   213.4
 15 JAN 16  16:03:00:00     379    7.8      33    2.5      232.5  -94.1  -10.1  145.7   -4.7   212.9
 15 JAN 16  16:04:00:00     370    6.5      31    1.5      232.5  -94.2  -10.1  145.7   -4.7   212.3
 15 JAN 16  16:05:00:00     382    7.9      38    2.8      232.4  -94.2  -10.0  145.7   -4.7   211.8
 15 JAN 16  16:06:00:00     360    8.9      32    0.9      232.4  -94.3  -10.0  145.7   -4.7   211.2
 15 JAN 16  16:07:00:00     370    6.0      26    0.8      232.3  -94.3  -10.0  145.7   -4.7   210.7
 15 JAN 16  16:08:00:00     369    5.3      25    0.7      232.3  -94.4  -10.0  145.7   -4.7   210.2
 15 JAN 16  16:09:00:00     367    6.6      26    2.8      232.2  -94.5  -10.0  145.7   -4.7   209.6
 15 JAN 16  16:10:00:00     372    6.2      27    0.7      232.2  -94.5   -9.9  145.7   -4.7   209.1
 15 JAN 16  16:11:00:00     369    8.1      27    3.7      232.1  -94.6   -9.9  145.7   -4.7   208.5
 15 JAN 16  16:12:00:00     355    6.1      24    0.6      232.1  -94.6   -9.9  145.7   -4.7   207.9
 15 JAN 16  16:13:00:00     356    6.1      22   -1.8      232.0  -94.7   -9.9  145.7   -4.7   207.4
 15 JAN 16  16:14:00:00     350    3.9      26    1.2      232.0  -94.7   -9.8  145.7   -4.7   206.8
 15 JAN 16  16:15:00:00     351    5.1      26   -0.9      231.9  -94.8   -9.8  145.7   -4.7   206.3
 15 JAN 16  16:16:00:00     348    4.2      28    1.9      231.9  -94.9   -9.8  145.7   -4.7   205.7
 15 JAN 16  16:17:00:00     349    4.2      28    4.0      231.8  -94.9   -9.8  145.7   -4.8   205.2
 15 JAN 16  16:18:00:00     348    4.0      26    2.7      231.8  -95.0   -9.8  145.7   -4.8   204.7
 15 JAN 16  16:19:00:00     349    3.9      27    3.1      231.7  -95.0   -9.7  145.7   -4.8   204.1
 15 JAN 16  16:20:00:00     348    4.3      26   -1.9      231.7  -95.1   -9.7  145.7   -4.8   203.6
 15 JAN 16  16:21:00:00     347    5.3      25   -4.4      231.6  -95.1   -9.7  145.7   -4.8   203.0
 15 JAN 16  16:22:00:00     341    3.4      27    3.1      231.6  -95.2   -9.7  145.7   -4.8   202.5
 15 JAN 16  16:23:00:00     343    3.6      27    3.0      231.5  -95.3   -9.6  145.7   -4.8   201.9
 15 JAN 17  17:00:00:00     344    4.1      24   -1.3      231.5  -95.3   -9.6  145.7   -4.8   201.4
 15 JAN 17  17:01:00:00     342    3.6      27    3.2      231.4  -95.4   -9.6  145.7   -4.8   200.8
 15 JAN 17  17:02:00:00     360    6.7      27    4.9      231.4  -95.4   -9.6  145.7   -4.8   200.2
 15 JAN 17  17:03:00:00     359    6.2      28    4.7      231.3  -95.5   -9.6  145.7   -4.8   199.7
 15 JAN 17  17:04:00:00     344    4.3      27    2.0      231.3  -95.5   -9.5  145.7   -4.8   199.2
 15 JAN 17  17:05:00:00     339    3.4      26    1.8      231.2  -95.6   -9.5  145.7   -4.8   198.6
 15 JAN 17  17:06:00:00     342    3.5      25   -0.4      231.2  -95.6   -9.5  145.7   -4.8   198.1
 15 JAN 17  17:07:00:00     335    3.4      25   -1.8      231.1  -95.7   -9.5  145.7   -4.8   197.6
 15 JAN 17  17:08:00:00     340    3.0      25    1.3      231.1  -95.7   -9.4  145.7   -4.8   197.0
 15 JAN 17  17:09:00:00     344    2.9      25   -1.4      231.0  -95.8   -9.4  145.7   -4.8   196.4
 15 JAN 17  17:10:00:00     336    3.5      25   -2.7      231.0  -95.8   -9.4  145.7   -4.8   195.9
 15 JAN 17  17:11:00:00     339    3.3      25   -1.0      230.9  -95.9   -9.4  145.7   -4.8   195.3
 15 JAN 17  17:12:00:00     337    3.2      25   -1.9      230.9  -95.9   -9.4  145.7   -4.8   194.8
 15 JAN 17  17:13:00:00     343    3.6      25    1.5      230.8  -96.0   -9.3  145.7   -4.8   194.2
 15 JAN 17  17:14:00:00     317    3.8      23    0.6      230.8  -96.0   -9.3  145.7   -4.8   193.7
 15 JAN 17  17:15:00:00     341    2.8      26   -0.6      230.7  -96.1   -9.3  145.7   -4.8   193.1
 15 JAN 17  17:16:00:00     352    3.8      24   -0.9      230.7  -96.2   -9.3  145.7   -4.8   192.6
 15 JAN 17  17:17:00:00     348    2.8      26    0.5      230.6  -96.2   -9.2  145.7   -4.8   192.1
 15 JAN 17  17:18:00:00     346    3.2      26    1.2      230.6  -96.3   -9.2  145.7   -4.8   191.5
 15 JAN 17  17:19:00:00     333    3.8      24   -4.0      230.5  -96.3   -9.2  145.7   -4.8   191.0
 15 JAN 17  17:20:00:00     339    5.4      26    4.0      230.5  -96.4   -9.2  145.7   -4.8   190.4
 15 JAN 17  17:21:00:00     323    4.6      23    1.9      230.4  -96.4   -9.2  145.7   -4.8   189.9
 15 JAN 17  17:22:00:00     317    4.7      22   -0.4      230.4  -96.5   -9.1  145.7   -4.9   189.3
 15 JAN 17  17:23:00:00     317    4.2      22    1.6      230.3  -96.5   -9.1  145.7   -4.9   188.7
 15 JAN 18  18:00:00:00     327    4.4      24    2.7      230.3  -96.6   -9.1  145.7   -4.9   188.2
 15 JAN 18  18:01:00:00     322    3.8      24    1.6      230.2  -96.6   -9.1  145.7   -4.9   187.6
 15 JAN 18  18:02:00:00     331    2.8      27    0.2      230.2  -96.6   -9.0  145.7   -4.9   187.1
 15 JAN 18  18:03:00:00     331    2.9      26   -0.8      230.1  -96.7   -9.0  145.7   -4.9   186.6
 15 JAN 18  18:04:00:00     359    2.3      30   -0.7      230.1  -96.7   -9.0  145.7   -4.9   186.0
 15 JAN 18  18:05:00:00     339    2.4      28    0.4      230.0  -96.8   -9.0  145.7   -4.9   185.5
 15 JAN 18  18:06:00:00     328    3.7      24   -0.4      230.0  -96.8   -9.0  145.7   -4.9   184.9
 15 JAN 18  18:07:00:00     320    4.6      23    0.2      229.9  -96.9   -8.9  145.7   -4.9   184.4
 15 JAN 18  18:08:00:00     347    3.3      28    0.7      229.9  -96.9   -8.9  145.7   -4.9   183.8
 15 JAN 18  18:09:00:00     334    3.0      26   -0.8      229.8  -97.0   -8.9  145.7   -4.9   183.3
 15 JAN 18  18:10:00:00     325    3.4      24    1.3      229.8  -97.0   -8.9  145.7   -4.9   182.7
 15 JAN 18  18:11:00:00     328    2.6      25    1.1      229.7  -97.1   -8.8  145.7   -4.9   182.2
 15 JAN 18  18:12:00:00     319    4.7      22    3.2      229.7  -97.1   -8.8  145.7   -4.9   181.6
 15 JAN 18  18:13:00:00     305    5.1      20    1.7      229.6  -97.2   -8.8  145.7   -4.9   181.1
 15 JAN 18  18:14:00:00     306    4.4      21    1.4      229.6  -97.2   -8.8  145.7   -4.9   180.5
 15 JAN 18  18:15:00:00     296    4.9      19   -0.1      229.5  -97.3   -8.8  145.7   -4.9   180.0
 15 JAN 18  18:16:00:00     310    2.8      20    0.2      229.5  -97.3   -8.7  145.7   -4.9   179.5
 15 JAN 18  18:17:00:00     314    3.1      22   -1.4      229.4  -97.3   -8.7  145.7   -4.9   178.9
 15 JAN 18  18:18:00:00     321    2.6      23    1.6      229.4  -97.4   -8.7  145.7   -4.9   178.4
 15 JAN 18  18:19:00:00     312    2.4      21    0.2      229.3  -97.4   -8.7  145.7   -4.9   177.8
 15 JAN 18  18:20:00:00     313    2.6      21    0.0      229.3  -97.5   -8.6  145.7   -4.9   177.2
 15 JAN 18  18:21:00:00     315    2.4      22    0.9      229.2  -97.5   -8.6  145.7   -4.9   176.7
 15 JAN 18  18:22:00:00     310    3.5      21    2.0      229.2  -97.6   -8.6  145.7   -4.9   176.1
 15 JAN 18  18:23:00:00     307    4.7      20    3.2      229.1  -97.6   -8.6  145.7   -4.9   175.6
 15 JAN 19  19:00:00:00     317    4.9      22    3.2      229.0  -97.7   -8.5  145.7   -4.9   175.0
 15 JAN 19  19:01:00:00     312    4.4      21    0.9      229.0  -97.7   -8.5  145.7   -4.9   174.5
 15 JAN 19  19:02:00:00     301    4.6      19    0.1      228.9  -97.7   -8.5  145.7   -4.9   174.0
 15 JAN 19  19:03:00:00     302    4.4      19    1.1      228.9  -97.8   -8.5  145.7   -5.0   173.4
 15 JAN 19  19:04:00:00     308    4.0      20    0.6      228.8  -97.8   -8.5  145.7   -5.0   172.9
 15 JAN 19  19:05:00:00     312    3.7      21    1.5      228.8  -97.9   -8.4  145.7   -5.0   172.3
 15 JAN 19  19:06:00:00     311    3.3      21   -0.4      228.7  -97.9   -8.4  145.7   -5.0   171.8
 15 JAN 19  19:07:00:00     310    3.3      20   -0.6      228.7  -98.0   -8.4  145.7   -5.0   171.2
 15 JAN 19  19:08:00:00     298    4.7      18    0.2      228.6  -98.0   -8.4  145.7   -5.0   170.7
 15 JAN 19  19:09:00:00     294    5.1      18    0.3      228.6  -98.0   -8.3  145.7   -5.0   170.1
 15 JAN 19  19:10:00:00     293    4.8      19    0.4      228.5  -98.1   -8.3  145.7   -5.0   169.5
 15 JAN 19  19:11:00:00     290    4.4      18    0.7      228.5  -98.1   -8.3  145.7   -5.0   169.0
 15 JAN 19  19:12:00:00     294    3.6      19    1.6      228.4  -98.2   -8.3  145.7   -5.0   168.4
 15 JAN 19  19:13:00:00     299    3.6      19    1.8      228.4  -98.2   -8.3  145.7   -5.0   167.9
 15 JAN 19  19:14:00:00     310    4.8      21    0.8      228.3  -98.2   -8.2  145.7   -5.0   167.4
 15 JAN 19  19:15:00:00     305    4.5      20    0.4      228.3  -98.3   -8.2  145.7   -5.0   166.8
 15 JAN 19  19:16:00:00     309    5.0      20    2.6      228.2  -98.3   -8.2  145.7   -5.0   166.3
 15 JAN 19  19:17:00:00     305    3.2      20    0.5      228.2  -98.4   -8.2  145.7   -5.0   165.7
 15 JAN 19  19:18:00:00     305    4.6      19    2.0      228.1  -98.4   -8.1  145.7   -5.0   165.2
 15 JAN 19  19:19:00:00     300    5.0      19    1.3      228.0  -98.4   -8.1  145.7   -5.0   164.6
 15 JAN 19  19:20:00:00     310    4.7      20    2.5      228.0  -98.5   -8.1  145.7   -5.0   164.1
 15 JAN 19  19:21:00:00     314    4.3      21    2.7      227.9  -98.5   -8.1  145.7   -5.0   163.5
 15 JAN 19  19:22:00:00     304    3.8      20    1.4      227.9  -98.6   -8.0  145.7   -5.0   163.0
 15 JAN 19  19:23:00:00     294    5.8      19    0.3      227.8  -98.6   -8.0  145.8   -5.0   162.4
 15 JAN 20  20:00:00:00     293    5.3      18    1.1      227.8  -98.6   -8.0  145.8   -5.0   161.9
 15 JAN 20  20:01:00:00     289    5.4      18    0.8      227.7  -98.7   -8.0  145.8   -5.0   161.3
 15 JAN 20  20:02:00:00     292    5.4      18   -0.5      227.7  -98.7   -8.0  145.8   -5.0   160.8
 15 JAN 20  20:03:00:00     300    2.8      19   -0.2      227.6  -98.7   -7.9  145.8   -5.0   160.3
 15 JAN 20  20:04:00:00     296    7.0      19   -2.1      227.6  -98.8   -7.9  145.8   -5.0   159.7
 15 JAN 20  20:05:00:00     299    7.3      19   -0.3      227.5  -98.8   -7.9  145.8   -5.0   159.2
 15 JAN 20  20:06:00:00     299    6.6      19    3.6      227.5  -98.8   -7.9  145.8   -5.0   158.6
 15 JAN 20  20:07:00:00     296    5.4      19    3.3      227.4  -98.9   -7.8  145.8   -5.0   158.0
 15 JAN 20  20:08:00:00     295    5.1      19    2.2      227.4  -98.9   -7.8  145.8   -5.0   157.5
 15 JAN 20  20:09:00:00     291    8.1      18   -0.6      227.3  -99.0   -7.8  145.8   -5.1   156.9
 15 JAN 20  20:10:00:00     286    6.9      17   -1.0      227.2  -99.0   -7.8  145.8   -5.1   156.4
 15 JAN 20  20:11:00:00     287    6.8      17   -2.9      227.2  -99.0   -7.7  145.8   -5.1   155.8
 15 JAN 20  20:12:00:00     291    6.2      18   -1.3      227.1  -99.1   -7.7  145.8   -5.1   155.3
 15 JAN 20  20:13:00:00     291    8.1      18   -2.5      227.1  -99.1   -7.7  145.8   -5.1   154.8
 15 JAN 20  20:14:00:00     285    4.5      17   -0.6      227.0  -99.1   -7.7  145.8   -5.1   154.2
 15 JAN 20  20:15:00:00     280    6.1      16   -0.1      227.0  -99.2   -7.7  145.8   -5.1   153.7
 15 JAN 20  20:16:00:00     284    6.2      17    0.1      226.9  -99.2   -7.6  145.8   -5.1   153.1
 15 JAN 20  20:17:00:00     287    5.8      17    1.3      226.9  -99.2   -7.6  145.8   -5.1   152.6
 15 JAN 20  20:18:00:00     295    4.8      18    1.2      226.8  -99.3   -7.6  145.8   -5.1   152.0
 15 JAN 20  20:19:00:00     285    6.9      17    2.0      226.8  -99.3   -7.6  145.8   -5.1   151.4
 15 JAN 20  20:20:00:00     274   13.3      12    3.7      226.7  -99.3   -7.5  145.8   -5.1   150.9
 15 JAN 20  20:21:00:00     274   17.8      13    4.3      226.6  -99.4   -7.5  145.8   -5.1   150.3
 15 JAN 20  20:22:00:00     277   31.1      16    5.8      226.6  -99.4   -7.5  145.8   -5.1   149.8
 15 JAN 20  20:23:00:00     279   32.6      16    6.2      226.5  -99.4   -7.5  145.8   -5.1   149.3
 15 JAN 21  21:00:00:00     286   39.0      17    7.2      226.5  -99.5   -7.4  145.8   -5.2   148.7
 15 JAN 21  21:01:00:00     287   36.2      17    6.7      226.4  -99.5   -7.4  145.8   -5.2   148.2
 15 JAN 21  21:02:00:00     290   40.0      18    7.1      226.4  -99.5   -7.4  145.8   -5.2   147.6
 15 JAN 21  21:03:00:00     286   27.6      17    6.6      226.3  -99.6   -7.4  145.8   -5.2   147.1
 15 JAN 21  21:04:00:00     301   51.8      20    8.7      226.3  -99.6   -7.4  145.8   -5.2   146.5
 15 JAN 21  21:05:00:00     292   30.3      18    7.8      226.2  -99.6   -7.3  145.8   -5.2   146.0
 15 JAN 21  21:06:00:00     302   32.5      19    8.2      226.2  -99.7   -7.3  145.8   -5.2   145.4
 15 JAN 21  21:07:00:00     327   14.4      24    7.3      226.1  -99.7   -7.3  145.8   -5.2   144.9
 15 JAN 21  21:08:00:00     337   11.2      28    6.5      226.0  -99.7   -7.3  145.8   -5.2   144.3
 15 JAN 21  21:09:00:00      -1   -1.0      -1   99.0      226.0  -99.8   -7.2  145.8   -5.2   143.8
 15 JAN 21  21:10:00:00      -1   -1.0      -1   99.0      225.9  -99.8   -7.2  145.8   -5.2   143.2
 15 JAN 21  21:11:00:00      -1   -1.0      -1   99.0      225.9  -99.8   -7.2  145.8   -5.2   142.7
 15 JAN 21  21:12:00:00      -1   -1.0      -1   99.0      225.8  -99.8   -7.2  145.8   -5.2   142.2
 15 JAN 21  21:13:00:00      -1   -1.0      -1   99.0      225.8  -99.9   -7.1  145.8   -5.2   141.6
 15 JAN 21  21:14:00:00     375   14.3      39   -4.1      225.7  -99.9   -7.1  145.8   -5.2   141.1
 15 JAN 21  21:15:00:00     380   12.9      39   -2.9      225.7  -99.9   -7.1  145.8   -5.2   140.5
 15 JAN 21  21:16:00:00     415   14.9      51   -4.3      225.6 -100.0   -7.1  145.8   -5.2   139.9
 15 JAN 21  21:17:00:00     414   17.5      51   -3.1      225.5 -100.0   -7.1  145.8   -5.2   139.4
 15 JAN 21  21:18:00:00     414   13.9      51   -1.5      225.5 -100.0   -7.0  145.8   -5.2   138.8
 15 JAN 21  21:19:00:00     454   11.7      54   -0.1      225.4 -100.1   -7.0  145.8   -5.2   138.3
 15 JAN 21  21:20:00:00     444   10.5      52   -1.4      225.4 -100.1   -7.0  145.8   -5.2   137.7
 15 JAN 21  21:21:00:00     445   10.4      52   -3.0      225.3 -100.1   -7.0  145.8   -5.2   137.2
 15 JAN 21  21:22:00:00     446    9.7      49   -3.4      225.3 -100.1   -6.9  145.8   -5.2   136.7
 15 JAN 21  21:23:00:00     458   10.9      47   -5.7      225.2 -100.2   -6.9  145.8   -5.2   136.1
 15 JAN 22  22:00:00:00     435   10.4      52   -3.8      225.2 -100.2   -6.9  145.8   -5.2   135.6
 15 JAN 22  22:01:00:00     422    9.5      53   -2.9      225.1 -100.2   -6.9  145.8   -5.2   135.0
 15 JAN 22  22:02:00:00     444   10.9      40   -4.4      225.0 -100.2   -6.8  145.8   -5.2   134.5
 15 JAN 22  22:03:00:00     446   10.3      40   -3.6      225.0 -100.3   -6.8  145.8   -5.2   133.9
 15 JAN 22  22:04:00:00     447   10.1      38   -3.0      224.9 -100.3   -6.8  145.8   -5.2   133.4
 15 JAN 22  22:05:00:00     422    7.1      46   -0.4      224.9 -100.3   -6.8  145.8   -5.2   132.8
 15 JAN 22  22:06:00:00     416    9.2      49   -0.5      224.8 -100.4   -6.8  145.8   -5.2   132.2
 15 JAN 22  22:07:00:00     421   10.1      49   -0.6      224.8 -100.4   -6.7  145.8   -5.3   131.7
 15 JAN 22  22:08:00:00     426   13.2      48   -3.7      224.7 -100.4   -6.7  145.8   -5.3   131.2
 15 JAN 22  22:09:00:00     426   12.5      46   -3.8      224.7 -100.4   -6.7  145.8   -5.3   130.6
 15 JAN 22  22:10:00:00     403   11.0      42   -0.1      224.6 -100.5   -6.7  145.8   -5.3   130.1
 15 JAN 22  22:11:00:00     441    7.1      36   -2.7      224.5 -100.5   -6.6  145.8   -5.3   129.5
 15 JAN 22  22:12:00:00     449    4.9      38   -1.4      224.5 -100.5   -6.6  145.8   -5.3   129.0
 15 JAN 22  22:13:00:00     456    5.8      36   -1.6      224.4 -100.5   -6.6  145.8   -5.3   128.4
 15 JAN 22  22:14:00:00     455    5.5      36    1.3      224.4 -100.6   -6.6  145.8   -5.3   127.9
 15 JAN 22  22:15:00:00     454    5.4      37    1.4      224.3 -100.6   -6.5  145.8   -5.3   127.3
 15 JAN 22  22:16:00:00     451    4.7      38    1.2      224.3 -100.6   -6.5  145.8   -5.3   126.8
 15 JAN 22  22:17:00:00     445    3.7      38    0.6      224.2 -100.6   -6.5  145.8   -5.3   126.2
 15 JAN 22  22:18:00:00     453    5.2      35    1.8      224.1 -100.7   -6.5  145.8   -5.3   125.7
 15 JAN 22  22:19:00:00     456    6.7      32    2.7      224.1 -100.7   -6.4  145.8   -5.3   125.1
 15 JAN 22  22:20:00:00     445    5.9      36    1.9      224.0 -100.7   -6.4  145.8   -5.3   124.6
 15 JAN 22  22:21:00:00     438    5.4      37    1.5      224.0 -100.7   -6.4  145.8   -5.3   124.0
 15 JAN 22  22:22:00:00     426    6.1      38    2.5      223.9 -100.8   -6.4  145.8   -5.3   123.5
 15 JAN 22  22:23:00:00     415    6.4      36    3.1      223.9 -100.8   -6.4  145.8   -5.3   123.0
 15 JAN 23  23:00:00:00     431    7.0      37    3.1      223.8 -100.8   -6.3  145.8   -5.3   122.4
 15 JAN 23  23:01:00:00     425    4.7      37    0.7      223.7 -100.8   -6.3  145.8   -5.3   121.9
 15 JAN 23  23:02:00:00     384    5.8      28    0.8      223.7 -100.9   -6.3  145.8   -5.3   121.3
 15 JAN 23  23:03:00:00     379    5.7      27    0.8      223.6 -100.9   -6.3  145.8   -5.3   120.7
 15 JAN 23  23:04:00:00     379    6.1      27   -0.6      223.6 -100.9   -6.2  145.8   -5.3   120.2
 15 JAN 23  23:05:00:00     384    6.6      27    1.6      223.5 -100.9   -6.2  145.8   -5.3   119.6
 15 JAN 23  23:06:00:00     390    9.0      28    4.6      223.5 -100.9   -6.2  145.8   -5.3   119.1
 15 JAN 23  23:07:00:00     406    5.7      33    2.2      223.4 -101.0   -6.2  145.8   -5.3   118.5
 15 JAN 23  23:08:00:00     400    5.8      32    0.2      223.3 -101.0   -6.1  145.8   -5.3   118.0
 15 JAN 23  23:09:00:00     407    5.0      33    1.6      223.3 -101.0   -6.1  145.8   -5.3   117.5
 15 JAN 23  23:10:00:00     411    4.1      34    0.9      223.2 -101.0   -6.1  145.8   -5.3   116.9
 15 JAN 23  23:11:00:00     399    5.3      31    1.8      223.2 -101.0   -6.1  145.8   -5.3   116.4
 15 JAN 23  23:12:00:00     409    4.0      34    1.6      223.1 -101.1   -6.0  145.8   -5.3   115.8
 15 JAN 23  23:13:00:00     409    4.3      35    0.9      223.1 -101.1   -6.0  145.8   -5.3   115.3
 15 JAN 23  23:14:00:00     420    4.0      37    0.1      223.0 -101.1   -6.0  145.8   -5.4   114.7
 15 JAN 23  23:15:00:00     420    4.1      37   -0.6      222.9 -101.1   -6.0  145.8   -5.4   114.1
 15 JAN 23  23:16:00:00     423    3.8      36   -0.6      222.9 -101.2   -6.0  145.8   -5.4   113.6
 15 JAN 23  23:17:00:00      -1   -1.0      -1   99.0      222.8 -101.2   -5.9  145.8   -5.4   113.0
 15 JAN 23  23:18:00:00     412    3.9      36    0.9      222.8 -101.2   -5.9  145.8   -5.4   112.5
 15 JAN 23  23:19:00:00     425    3.5      38    1.6      222.7 -101.2   -5.9  145.8   -5.4   112.0
 15 JAN 23  23:20:00:00     407    4.3      35    1.2      222.7 -101.2   -5.9  145.8   -5.4   111.4
 15 JAN 23  23:21:00:00     405    4.2      34    0.5      222.6 -101.3   -5.8  145.8   -5.4   110.9
 15 JAN 23  23:22:00:00     405    4.4      34    1.3      222.5 -101.3   -5.8  145.8   -5.4   110.3
 15 JAN 23  23:23:00:00     397    4.8      32    0.8      222.5 -101.3   -5.8  145.8   -5.4   109.8
 15 JAN 24  24:00:00:00     384    5.3      28    1.4      222.4 -101.3   -5.8  145.8   -5.4   109.2
 15 JAN 24  24:01:00:00     377    5.2      25    2.1      222.4 -101.3   -5.7  145.8   -5.4   108.7
 15 JAN 24  24:02:00:00     375    5.7      26    0.7      222.3 -101.3   -5.7  145.8   -5.4   108.1
 15 JAN 24  24:03:00:00     373    5.5      26    1.7      222.3 -101.4   -5.7  145.8   -5.4   107.6
 15 JAN 24  24:04:00:00     364    5.5      24    2.3      222.2 -101.4   -5.7  145.8   -5.4   107.0
 15 JAN 24  24:05:00:00     367    4.4      29    2.5      222.1 -101.4   -5.6  145.8   -5.4   106.5
 15 JAN 24  24:06:00:00     368    6.4      26    3.1      222.1 -101.4   -5.6  145.8   -5.4   105.9
 15 JAN 24  24:07:00:00     364    4.0      28    1.2      222.0 -101.4   -5.6  145.8   -5.4   105.4
 15 JAN 24  24:08:00:00     367    4.5      28    0.8      222.0 -101.5   -5.6  145.8   -5.4   104.9
 15 JAN 24  24:09:00:00     374    5.8      27    0.7      221.9 -101.5   -5.6  145.8   -5.4   104.3
 15 JAN 24  24:10:00:00     380    5.0      31    0.7      221.8 -101.5   -5.5  145.8   -5.4   103.8
 15 JAN 24  24:11:00:00     380    4.8      33    2.2      221.8 -101.5   -5.5  145.8   -5.4   103.2
 15 JAN 24  24:12:00:00     375    5.5      32    3.0      221.7 -101.5   -5.5  145.8   -5.4   102.6
 15 JAN 24  24:13:00:00     375    5.1      32    2.5      221.7 -101.5   -5.5  145.9   -5.4   102.1
 15 JAN 24  24:14:00:00     375    5.4      31    1.5      221.6 -101.6   -5.4  145.9   -5.4   101.5
 15 JAN 24  24:15:00:00     368    5.9      26    1.1      221.6 -101.6   -5.4  145.9   -5.4   101.0
 15 JAN 24  24:16:00:00     368    7.0      26    2.5      221.5 -101.6   -5.4  145.9   -5.4   100.4
 15 JAN 24  24:17:00:00     367    6.1      28    2.1      221.4 -101.6   -5.4  145.9   -5.4    99.9
 15 JAN 24  24:18:00:00     361    6.0      28    3.4      221.4 -101.6   -5.3  145.9   -5.4    99.4
 15 JAN 24  24:19:00:00     363    4.0      29    0.7      221.3 -101.6   -5.3  145.9   -5.4    98.8
 15 JAN 24  24:20:00:00     352    7.1      25    4.6      221.3 -101.7   -5.3  145.9   -5.4    98.3
 15 JAN 24  24:21:00:00     360    6.5      27    2.2      221.2 -101.7   -5.3  145.9   -5.4    97.7
 15 JAN 24  24:22:00:00     358    7.9      25    3.4      221.2 -101.7   -5.2  145.9   -5.4    97.2
 15 JAN 24  24:23:00:00     354    6.5      27    4.2      221.1 -101.7   -5.2  145.9   -5.5    96.6
 15 JAN 25  25:00:00:00     352    4.7      29    1.3      221.0 -101.7   -5.2  145.9   -5.5    96.1
 15 JAN 25  25:01:00:00     359    6.4      24    1.2      221.0 -101.7   -5.2  145.9   -5.5    95.5
 15 JAN 25  25:02:00:00     357    7.1      24    2.8      220.9 -101.7   -5.1  145.9   -5.5    94.9
 15 JAN 25  25:03:00:00     358    8.1      25    4.0      220.9 -101.8   -5.1  145.9   -5.5    94.4
 15 JAN 25  25:04:00:00     357    6.9      26    3.7      220.8 -101.8   -5.1  145.9   -5.5    93.9
 15 JAN 25  25:05:00:00     356    5.1      30    2.9      220.8 -101.8   -5.1  145.9   -5.5    93.3
 15 JAN 25  25:06:00:00     355    5.5      30    3.1      220.7 -101.8   -5.0  145.9   -5.5    92.8
 15 JAN 25  25:07:00:00     357    6.9      25    3.4      220.6 -101.8   -5.0  145.9   -5.5    92.2
 15 JAN 25  25:08:00:00     356    5.9      27    2.0      220.6 -101.8   -5.0  145.9   -5.5    91.7
 15 JAN 25  25:09:00:00     347    5.2      28    3.5      220.5 -101.8   -5.0  145.9   -5.5    91.1
 15 JAN 25  25:10:00:00     355    5.8      27    2.2      220.5 -101.9   -5.0  145.9   -5.5    90.6
 15 JAN 25  25:11:00:00     342    4.5      27    3.5      220.4 -101.9   -4.9  145.9   -5.5    90.0
 15 JAN 25  25:12:00:00     333    7.6      25    5.5      220.3 -101.9   -4.9  145.9   -5.5    89.5
 15 JAN 25  25:13:00:00     331    9.4      24    5.7      220.3 -101.9   -4.9  145.9   -5.5    88.9
 15 JAN 25  25:14:00:00     324    5.9      24    1.5      220.2 -101.9   -4.9  145.9   -5.5    88.4
 15 JAN 25  25:15:00:00     330    5.3      25    2.8      220.2 -101.9   -4.8  145.9   -5.6    87.8
 15 JAN 25  25:16:00:00     324    7.0      23    3.8      220.1 -101.9   -4.8  145.9   -5.6    87.3
 15 JAN 25  25:17:00:00     316    9.3      22    3.8      220.1 -101.9   -4.8  145.9   -5.6    86.7
 15 JAN 25  25:18:00:00     330    7.9      24    3.9      220.0 -102.0   -4.8  145.9   -5.6    86.2
 15 JAN 25  25:19:00:00     327    5.6      24    1.6      219.9 -102.0   -4.7  145.9   -5.6    85.7
 15 JAN 25  25:20:00:00     338   14.2      27    4.1      219.9 -102.0   -4.7  145.9   -5.6    85.1
 15 JAN 25  25:21:00:00     348   11.2      27    2.3      219.8 -102.0   -4.7  145.9   -5.6    84.5
 15 JAN 25  25:22:00:00     350    8.5      26    0.6      219.8 -102.0   -4.7  145.9   -5.6    84.0
 15 JAN 25  25:23:00:00     349   15.4      25    4.8      219.7 -102.0   -4.6  145.9   -5.6    83.4
 15 JAN 26  26:00:00:00     353    8.3      28    3.4      219.7 -102.0   -4.6  145.9   -5.6    82.9
 15 JAN 26  26:01:00:00     363    5.4      30    0.7      219.6 -102.0   -4.6  145.9   -5.6    82.3
 15 JAN 26  26:02:00:00     338   15.8      26    6.3      219.5 -102.0   -4.6  145.9   -5.6    81.8
 15 JAN 26  26:03:00:00     336   14.0      27    4.4      219.5 -102.1   -4.5  145.9   -5.6    81.2
 15 JAN 26  26:04:00:00     343   27.9      27    7.6      219.4 -102.1   -4.5  145.9   -5.6    80.7
 15 JAN 26  26:05:00:00     350   20.0      29    5.1      219.4 -102.1   -4.5  145.9   -5.6    80.2
 15 JAN 26  26:06:00:00     365   10.7      29    1.5      219.3 -102.1   -4.5  145.9   -5.6    79.6
 15 JAN 26  26:07:00:00     376   14.1      31    2.2      219.2 -102.1   -4.4  145.9   -5.6    79.1
 15 JAN 26  26:08:00:00     381   26.9      34    4.2      219.2 -102.1   -4.4  145.9   -5.6    78.5
 15 JAN 26  26:09:00:00     364   27.5      32    5.3      219.1 -102.1   -4.4  145.9   -5.6    78.0
 15 JAN 26  26:10:00:00     354   19.8      29    4.5      219.1 -102.1   -4.4  145.9   -5.6    77.4
 15 JAN 26  26:11:00:00     350   18.8      29    4.3      219.0 -102.1   -4.4  145.9   -5.6    76.8
 15 JAN 26  26:12:00:00     347   14.0      26    2.6      219.0 -102.1   -4.3  145.9   -5.6    76.3
 15 JAN 26  26:13:00:00     347   11.2      26    2.5      218.9 -102.2   -4.3  145.9   -5.6    75.7
 15 JAN 26  26:14:00:00     348    9.0      26    1.0      218.8 -102.2   -4.3  145.9   -5.6    75.2
 15 JAN 26  26:15:00:00     354    7.4      22   -1.6      218.8 -102.2   -4.3  145.9   -5.6    74.7
 15 JAN 26  26:16:00:00     354    7.2      25   -1.9      218.7 -102.2   -4.2  145.9   -5.6    74.1
 15 JAN 26  26:17:00:00     355    7.6      24   -2.5      218.7 -102.2   -4.2  145.9   -5.6    73.6
 15 JAN 26  26:18:00:00     359    7.6      24   -3.3      218.6 -102.2   -4.2  145.9   -5.6    73.0
 15 JAN 26  26:19:00:00     357    6.2      27   -2.8      218.6 -102.2   -4.2  145.9   -5.6    72.5
 15 JAN 26  26:20:00:00     358    6.8      28   -2.2      218.5 -102.2   -4.1  145.9   -5.6    71.9
 15 JAN 26  26:21:00:00     355    6.2      28   -0.6      218.4 -102.2   -4.1  145.9   -5.6    71.4
 15 JAN 26  26:22:00:00     349    6.2      29   -0.2      218.4 -102.2   -4.1  145.9   -5.6    70.8
 15 JAN 26  26:23:00:00     353    6.6      30   -0.2      218.3 -102.2   -4.1  145.9   -5.6    70.3
 15 JAN 27  27:00:00:00     352    8.7      30    0.4      218.3 -102.2   -4.0  145.9   -5.6    69.7
 15 JAN 27  27:01:00:00     354   10.6      29    0.8      218.2 -102.2   -4.0  145.9   -5.7    69.2
 15 JAN 27  27:02:00:00     358   12.8      31    2.9      218.2 -102.3   -4.0  145.9   -5.7    68.6
 15 JAN 27  27:03:00:00     374    7.8      32    2.0      218.1 -102.3   -4.0  145.9   -5.7    68.1
 15 JAN 27  27:04:00:00     394    7.1      32    0.4      218.0 -102.3   -3.9  145.9   -5.7    67.6
 15 JAN 27  27:05:00:00     394    6.0      30   -0.2      218.0 -102.3   -3.9  145.9   -5.7    67.0
 15 JAN 27  27:06:00:00     452    8.4      37   -1.5      217.9 -102.3   -3.9  145.9   -5.7    66.5
 15 JAN 27  27:07:00:00     464    9.5      37   -2.0      217.9 -102.3   -3.9  145.9   -5.7    65.9
 15 JAN 27  27:08:00:00     455    9.0      38    0.4      217.8 -102.3   -3.8  145.9   -5.7    65.3
 15 JAN 27  27:09:00:00     443    7.2      36   -1.1      217.8 -102.3   -3.8  145.9   -5.7    64.8
 15 JAN 27  27:10:00:00     454    7.3      37   -1.7      217.7 -102.3   -3.8  145.9   -5.7    64.2
 15 JAN 27  27:11:00:00     442    5.5      36   -2.0      217.6 -102.3   -3.8  145.9   -5.7    63.7
 15 JAN 27  27:12:00:00     447    6.8      36   -3.2      217.6 -102.3   -3.7  145.9   -5.7    63.1
 15 JAN 27  27:13:00:00     460    8.3      37   -2.7      217.5 -102.3   -3.7  145.9   -5.7    62.6
 15 JAN 27  27:14:00:00     459    7.7      37   -2.6      217.5 -102.3   -3.7  145.9   -5.7    62.1
 15 JAN 27  27:15:00:00     465    7.3      42   -2.4      217.4 -102.3   -3.7  145.9   -5.7    61.5
 15 JAN 27  27:16:00:00     462    8.4      40   -1.9      217.4 -102.3   -3.6  145.9   -5.7    61.0
 15 JAN 27  27:17:00:00     465    8.7      38   -2.2      217.3 -102.3   -3.6  145.9   -5.7    60.4
 15 JAN 27  27:18:00:00     462    8.9      36   -1.6      217.2 -102.3   -3.6  145.9   -5.7    59.9
 15 JAN 27  27:19:00:00     456   12.0      39   -0.6      217.2 -102.3   -3.6  145.9   -5.7    59.3
 15 JAN 27  27:20:00:00     453   11.5      39   -0.5      217.1 -102.3   -3.5  145.9   -5.7    58.7
 15 JAN 27  27:21:00:00     452   12.1      39   -1.0      217.1 -102.4   -3.5  145.9   -5.7    58.2
 15 JAN 27  27:22:00:00     448   11.8      38   -0.6      217.0 -102.4   -3.5  145.9   -5.7    57.6
 15 JAN 27  27:23:00:00     439   10.2      38   -0.3      217.0 -102.4   -3.5  145.9   -5.7    57.1
 15 JAN 28  28:00:00:00     427    8.0      39   -0.7      216.9 -102.4   -3.4  145.9   -5.7    56.6
 15 JAN 28  28:01:00:00     425    7.6      46   -0.6      216.9 -102.4   -3.4  145.9   -5.7    56.0
 15 JAN 28  28:02:00:00     438    9.7      42   -1.3      216.8 -102.4   -3.4  145.9   -5.7    55.5
 15 JAN 28  28:03:00:00     473   13.1      50   -3.5      216.7 -102.4   -3.4  145.9   -5.7    54.9
 15 JAN 28  28:04:00:00     458   12.3      43   -2.7      216.7 -102.4   -3.3  145.9   -5.7    54.4
 15 JAN 28  28:05:00:00     455   10.1      42   -1.1      216.6 -102.4   -3.3  145.9   -5.7    53.8
 15 JAN 28  28:06:00:00     452   10.4      38   -2.0      216.6 -102.4   -3.3  145.9   -5.7    53.3
 15 JAN 28  28:07:00:00     465   10.3      40   -2.8      216.5 -102.4   -3.3  145.9   -5.7    52.7
 15 JAN 28  28:08:00:00     457    8.6      37   -2.6      216.5 -102.4   -3.2  145.9   -5.7    52.2
 15 JAN 28  28:09:00:00     457    9.7      36   -2.2      216.4 -102.4   -3.2  145.9   -5.7    51.6
 15 JAN 28  28:10:00:00     453    6.8      38   -1.3      216.3 -102.4   -3.2  145.9   -5.7    51.1
 15 JAN 28  28:11:00:00     456    5.9      41   -0.8      216.3 -102.4   -3.2  145.9   -5.7    50.5
 15 JAN 28  28:12:00:00     442    4.7      40   -0.7      216.2 -102.4   -3.1  145.9   -5.7    50.0
 15 JAN 28  28:13:00:00     425    4.5      39    0.0      216.2 -102.4   -3.1  145.9   -5.8    49.4
 15 JAN 28  28:14:00:00     416    4.2      36    0.3      216.1 -102.4   -3.1  145.9   -5.8    48.9
 15 JAN 28  28:15:00:00     409    3.9      34   -0.3      216.1 -102.4   -3.1  146.0   -5.8    48.4
 15 JAN 28  28:16:00:00     418    4.3      37   -1.2      216.0 -102.4   -3.1  146.0   -5.8    47.8
 15 JAN 28  28:17:00:00     416    4.6      36   -0.6      216.0 -102.4   -3.0  146.0   -5.8    47.2
 15 JAN 28  28:18:00:00     413    4.3      35    0.0      215.9 -102.4   -3.0  146.0   -5.8    46.7
 15 JAN 28  28:19:00:00     413    4.9      35   -0.4      215.9 -102.4   -3.0  146.0   -5.8    46.1
 15 JAN 28  28:20:00:00     409    4.8      34   -0.4      215.8 -102.4   -3.0  146.0   -5.8    45.6
 15 JAN 28  28:21:00:00     394    5.4      30   -1.2      215.7 -102.4   -2.9  146.0   -5.8    45.0
 15 JAN 28  28:22:00:00     388    6.6      29   -1.2      215.7 -102.4   -2.9  146.0   -5.8    44.5
 15 JAN 28  28:23:00:00     381    7.5      28   -1.5      215.6 -102.4   -2.9  146.0   -5.8    43.9
 15 JAN 29  29:00:00:00     373    8.0      26   -1.6      215.6 -102.4   -2.9  146.0   -5.8    43.4
 15 JAN 29  29:01:00:00     370    7.5      26   -1.5      215.5 -102.4   -2.8  146.0   -5.8    42.9
 15 JAN 29  29:02:00:00     373    6.7      26   -3.0      215.5 -102.4   -2.8  146.0   -5.8    42.3
 15 JAN 29  29:03:00:00     364    7.6      25   -3.5      215.4 -102.4   -2.8  146.0   -5.8    41.8
 15 JAN 29  29:04:00:00     362    6.9      27   -3.7      215.4 -102.4   -2.8  146.0   -5.8    41.2
 15 JAN 29  29:05:00:00     360    7.6      27   -3.2      215.3 -102.4   -2.7  146.0   -5.8    40.7
 15 JAN 29  29:06:00:00     360    8.3      24   -3.3      215.2 -102.4   -2.7  146.0   -5.8    40.1
 15 JAN 29  29:07:00:00     357    8.7      22   -2.9      215.2 -102.4   -2.7  146.0   -5.8    39.5
 15 JAN 29  29:08:00:00     357    9.0      23   -2.5      215.1 -102.4   -2.7  146.0   -5.8    39.0
 15 JAN 29  29:09:00:00     370    6.4      26   -1.6      215.1 -102.4   -2.6  146.0   -5.8    38.4
 15 JAN 29  29:10:00:00     373   11.0      28   -2.9      215.0 -102.4   -2.6  146.0   -5.8    37.9
 15 JAN 29  29:11:00:00     370    9.8      27   -2.5      215.0 -102.4   -2.6  146.0   -5.8    37.4
 15 JAN 29  29:12:00:00     368   10.2      26   -3.1      214.9 -102.4   -2.6  146.0   -5.8    36.8
 15 JAN 29  29:13:00:00     370    9.5      26   -3.4      214.9 -102.4   -2.5  146.0   -5.8    36.3
 15 JAN 29  29:14:00:00     362   13.5      23   -4.6      214.8 -102.4   -2.5  146.0   -5.8    35.7
 15 JAN 29  29:15:00:00     375   10.6      27   -1.8      214.8 -102.4   -2.5  146.0   -5.8    35.2
 15 JAN 29  29:16:00:00     386   10.2      33   -1.3      214.7 -102.3   -2.5  146.0   -5.8    34.6
 15 JAN 29  29:17:00:00     398   10.2      36   -3.7      214.7 -102.3   -2.4  146.0   -5.8    34.1
 15 JAN 29  29:18:00:00     398   10.5      36   -4.0      214.6 -102.3   -2.4  146.0   -5.8    33.5
 15 JAN 29  29:19:00:00     389   10.1      36   -3.2      214.5 -102.3   -2.4  146.0   -5.8    32.9
 15 JAN 29  29:20:00:00     394   13.4      34   -3.6      214.5 -102.3   -2.4  146.0   -5.8    32.4
 15 JAN 29  29:21:00:00     400   10.8      36   -3.9      214.4 -102.3   -2.3  146.0   -5.8    31.9
 15 JAN 29  29:22:00:00     401    9.7      37   -3.2      214.4 -102.3   -2.3  146.0   -5.8    31.3
 15 JAN 29  29:23:00:00     398    8.6      35   -1.6      214.3 -102.3   -2.3  146.0   -5.8    30.8
 15 JAN 30  30:00:00:00     392    8.1      33   -1.0      214.3 -102.3   -2.3  146.0   -5.8    30.3
 15 JAN 30  30:01:00:00     385   10.4      33   -1.3      214.2 -102.3   -2.2  146.0   -5.9    29.7
 15 JAN 30  30:02:00:00     377    9.8      30   -0.1      214.2 -102.3   -2.2  146.0   -5.9    29.1
 15 JAN 30  30:03:00:00     368    8.3      26    0.3      214.1 -102.3   -2.2  146.0   -5.9    28.6
 15 JAN 30  30:04:00:00     377    8.3      28   -0.5      214.1 -102.3   -2.2  146.0   -5.9    28.0
 15 JAN 30  30:05:00:00     381    6.2      27   -0.4      214.0 -102.3   -2.1  146.0   -5.9    27.5
 15 JAN 30  30:06:00:00     399    5.9      32   -0.2      214.0 -102.3   -2.1  146.0   -5.9    26.9
 15 JAN 30  30:07:00:00     400    6.6      34   -0.2      213.9 -102.3   -2.1  146.0   -5.9    26.4
 15 JAN 30  30:08:00:00     412    4.2      35   -1.3      213.9 -102.3   -2.0  146.0   -5.9    25.8
 15 JAN 30  30:09:00:00     407    4.8      33   -1.2      213.8 -102.3   -2.0  146.0   -5.9    25.3
 15 JAN 30  30:10:00:00     410    5.4      34   -1.6      213.7 -102.2   -2.0  146.0   -5.9    24.8
 15 JAN 30  30:11:00:00     407    5.5      33   -1.5      213.7 -102.2   -2.0  146.0   -5.9    24.2
 15 JAN 30  30:12:00:00     404    5.5      33   -1.0      213.6 -102.2   -1.9  146.0   -5.9    23.7
 15 JAN 30  30:13:00:00     406    5.4      33   -0.4      213.6 -102.2   -1.9  146.0   -5.9    23.1
 15 JAN 30  30:14:00:00     402    5.3      31   -1.1      213.5 -102.2   -1.9  146.0   -5.9    22.6
 15 JAN 30  30:15:00:00     387    5.5      29   -0.9      213.5 -102.2   -1.9  146.0   -5.9    22.0
 15 JAN 30  30:16:00:00     374    6.1      26   -1.2      213.4 -102.2   -1.8  146.0   -5.9    21.4
 15 JAN 30  30:17:00:00     372    6.9      25   -1.1      213.4 -102.2   -1.8  146.0   -5.9    20.9
 15 JAN 30  30:18:00:00     382    6.7      28    0.3      213.3 -102.2   -1.8  146.0   -5.9    20.3
 15 JAN 30  30:19:00:00     382    7.3      28   -1.3      213.3 -102.2   -1.8  146.0   -5.9    19.8
 15 JAN 30  30:20:00:00     388    7.1      30   -0.4      213.2 -102.2   -1.7  146.0   -6.0    19.3
 15 JAN 30  30:21:00:00     402    4.6      33    0.4      213.2 -102.2   -1.7  146.0   -6.0    18.7
 15 JAN 30  30:22:00:00     402    4.2      32    1.1      213.1 -102.1   -1.7  146.0   -6.0    18.2
 15 JAN 30  30:23:00:00     412    4.6      35    2.3      213.1 -102.1   -1.7  146.0   -6.0    17.6
 15 JAN 31  31:00:00:00     411    4.6      35    2.8      213.0 -102.1   -1.6  146.0   -6.0    17.1
 15 JAN 31  31:01:00:00     408    5.2      35    1.7      213.0 -102.1   -1.6  146.0   -6.0    16.5
 15 JAN 31  31:02:00:00     402    6.0      33    0.2      212.9 -102.1   -1.6  146.0   -6.0    16.0
 15 JAN 31  31:03:00:00     388    6.1      30   -0.3      212.9 -102.1   -1.6  146.0   -6.0    15.4
 15 JAN 31  31:04:00:00     384    5.8      30   -0.3      212.8 -102.1   -1.5  146.0   -6.0    14.8
 15 JAN 31  31:05:00:00     389    4.7      33   -0.5      212.8 -102.1   -1.5  146.0   -6.0    14.3
 15 JAN 31  31:06:00:00     388    5.8      30    0.6      212.7 -102.1   -1.5  146.0   -6.0    13.8
 15 JAN 31  31:07:00:00     392    5.1      29   -0.7      212.7 -102.1   -1.5  146.0   -6.0    13.2
 15 JAN 31  31:08:00:00     410    4.7      35   -1.3      212.6 -102.0   -1.4  146.0   -6.0    12.7
 15 JAN 31  31:09:00:00     400    5.3      32   -1.5      212.6 -102.0   -1.4  146.0   -6.0    12.1
 15 JAN 31  31:10:00:00     402    5.3      34   -0.6      212.5 -102.0   -1.4  146.0   -6.0    11.6
 15 JAN 31  31:11:00:00     397    5.1      34   -0.9      212.5 -102.0   -1.4  146.0   -6.0    11.0
 15 JAN 31  31:12:00:00     406    4.5      35   -1.5      212.4 -102.0   -1.3  146.0   -6.0    10.5
 15 JAN 31  31:13:00:00     404    5.0      33   -1.8      212.4 -102.0   -1.3  146.0   -6.0     9.9
 15 JAN 31  31:14:00:00     404    5.3      33   -2.3      212.3 -102.0   -1.3  146.0   -6.0     9.4
 15 JAN 31  31:15:00:00     393    5.6      31   -2.4      212.3 -102.0   -1.3  146.0   -6.0     8.8
 15 JAN 31  31:16:00:00     389    6.7      29   -2.9      212.2 -101.9   -1.2  146.0   -6.0     8.3
 15 JAN 31  31:17:00:00     395    7.9      30   -4.1      212.2 -101.9   -1.2  146.0   -6.0     7.7
 15 JAN 31  31:18:00:00     393    8.8      30   -4.4      212.1 -101.9   -1.2  146.0   -6.0     7.2
 15 JAN 31  31:19:00:00     388   12.0      28   -5.2      212.1 -101.9   -1.2  146.0   -6.0     6.6
 15 JAN 31  31:20:00:00     395   15.0      31   -5.6      212.0 -101.9   -1.1  146.0   -6.0     6.1
 15 JAN 31  31:21:00:00     407   21.4      32   -8.8      212.0 -101.9   -1.1  146.0   -6.0     5.6
 15 JAN 31  31:22:00:00     406   18.7      32   -8.3      211.9 -101.9   -1.1  146.0   -6.0     5.0
 15 JAN 31  31:23:00:00     400   16.6      30   -6.2      211.9 -101.9   -1.1  146.0   -6.0     4.5
 15 FEB  1  32:00:00:00     402   13.5      31   -4.9      211.8 -101.8   -1.0  146.0   -6.0     3.9
 15 FEB  1  32:01:00:00     418    9.6      36   -4.6      211.8 -101.8   -1.0  146.0   -6.0     3.3
 15 FEB  1  32:02:00:00     438    9.0      38   -2.5      211.7 -101.8   -1.0  146.0   -6.0     2.8
 15 FEB  1  32:03:00:00     439    9.7      38   -2.4      211.7 -101.8   -1.0  146.0   -6.0     2.2
 15 FEB  1  32:04:00:00     452    8.0      39   -2.2      211.6 -101.8   -0.9  146.0   -6.0     1.7
 15 FEB  1  32:05:00:00     453    8.7      37   -1.3      211.6 -101.8   -0.9  146.0   -6.0     1.1
 15 FEB  1  32:06:00:00     484   11.5      47    0.1      211.5 -101.7   -0.9  146.0   -6.0     0.6